sensor_id;sensor_type;location;lat;lon;timestamp;P1;durP1;ratioP1;P2;durP2;ratioP2
15970;SDS011;59785;52.582;13.892;2022-08-05T03:13:44;8.35;;;6.78;;
15970;SDS011;59785;52.582;13.892;2022-08-05T03:16:27;11.57;;;6.60;;
15970;SDS011;59785;52.582;13.892;2022-08-05T03:18:56;12.18;;;7.10;;
15970;SDS011;59785;52.582;13.892;2022-08-05T03:21:22;9.05;;;7.35;;
15970;SDS011;59785;52.582;13.892;2022-08-05T03:23:53;8.82;;;7.45;;
15970;SDS011;59785;52.582;13.892;2022-08-05T03:26:21;9.38;;;7.50;;
15970;SDS011;59785;52.582;13.892;2022-08-05T03:28:57;8.57;;;7.43;;
15970;SDS011;59785;52.582;13.892;2022-08-05T03:31:24;9.20;;;7.32;;
15970;SDS011;59785;52.582;13.892;2022-08-05T03:34:10;9.50;;;7.03;;
15970;SDS011;59785;52.582;13.892;2022-08-05T03:36:37;7.88;;;7.03;;
15970;SDS011;59785;52.582;13.892;2022-08-05T03:39:05;8.07;;;7.22;;
15970;SDS011;59785;52.582;13.892;2022-08-05T03:41:37;8.77;;;7.55;;
15970;SDS011;59785;52.582;13.892;2022-08-05T03:44:11;11.50;;;7.85;;
15970;SDS011;59785;52.582;13.892;2022-08-05T03:46:44;9.05;;;6.93;;
15970;SDS011;59785;52.582;13.892;2022-08-05T03:49:11;11.48;;;8.07;;
15970;SDS011;59785;52.582;13.892;2022-08-05T03:54:51;9.60;;;7.07;;
15970;SDS011;59785;52.582;13.892;2022-08-05T03:57:41;9.85;;;6.93;;
15970;SDS011;59785;52.582;13.892;2022-08-05T04:00:11;7.10;;;6.40;;
15970;SDS011;59785;52.582;13.892;2022-08-05T04:02:41;9.55;;;6.68;;
15970;SDS011;59785;52.582;13.892;2022-08-05T04:05:23;8.27;;;7.20;;
15970;SDS011;59785;52.582;13.892;2022-08-05T04:07:52;9.95;;;6.72;;
15970;SDS011;59785;52.582;13.892;2022-08-05T04:10:23;9.82;;;7.47;;
15970;SDS011;59785;52.582;13.892;2022-08-05T04:12:52;8.82;;;6.88;;
15970;SDS011;59785;52.582;13.892;2022-08-05T04:15:19;8.65;;;6.88;;
15970;SDS011;59785;52.582;13.892;2022-08-05T04:17:49;8.88;;;7.13;;
15970;SDS011;59785;52.582;13.892;2022-08-05T04:20:22;9.02;;;6.93;;
15970;SDS011;59785;52.582;13.892;2022-08-05T04:22:49;7.57;;;6.75;;
15970;SDS011;59785;52.582;13.892;2022-08-05T04:25:15;11.88;;;6.63;;
15970;SDS011;59785;52.582;13.892;2022-08-05T04:27:41;14.82;;;7.50;;
15970;SDS011;59785;52.582;13.892;2022-08-05T04:30:23;10.10;;;7.03;;
15970;SDS011;59785;52.582;13.892;2022-08-05T04:32:51;10.40;;;6.93;;
15970;SDS011;59785;52.582;13.892;2022-08-05T04:35:17;7.95;;;6.70;;
15970;SDS011;59785;52.582;13.892;2022-08-05T04:37:44;10.10;;;7.13;;
15970;SDS011;59785;52.582;13.892;2022-08-05T04:40:32;9.05;;;7.22;;
15970;SDS011;59785;52.582;13.892;2022-08-05T04:43:00;9.75;;;7.07;;
15970;SDS011;59785;52.582;13.892;2022-08-05T04:45:26;8.23;;;6.38;;
15970;SDS011;59785;52.582;13.892;2022-08-05T04:48:13;9.15;;;6.57;;
15970;SDS011;59785;52.582;13.892;2022-08-05T04:50:52;13.82;;;7.10;;
15970;SDS011;59785;52.582;13.892;2022-08-05T04:53:36;10.85;;;6.95;;
15970;SDS011;59785;52.582;13.892;2022-08-05T04:56:03;11.07;;;6.60;;
15970;SDS011;59785;52.582;13.892;2022-08-05T04:58:40;12.43;;;6.90;;
15970;SDS011;59785;52.582;13.892;2022-08-05T05:01:07;8.75;;;6.13;;
15970;SDS011;59785;52.582;13.892;2022-08-05T05:03:34;9.30;;;6.68;;
15970;SDS011;59785;52.582;13.892;2022-08-05T05:06:10;7.20;;;6.20;;
15970;SDS011;59785;52.582;13.892;2022-08-05T05:08:58;9.80;;;6.55;;
15970;SDS011;59785;52.582;13.892;2022-08-05T05:11:25;11.18;;;6.45;;
15970;SDS011;59785;52.582;13.892;2022-08-05T05:14:07;9.07;;;7.25;;
15970;SDS011;59785;52.582;13.892;2022-08-05T05:16:40;11.50;;;6.70;;
15970;SDS011;59785;52.582;13.892;2022-08-05T05:19:09;9.93;;;6.93;;
15970;SDS011;59785;52.582;13.892;2022-08-05T05:21:44;8.10;;;6.65;;
15970;SDS011;59785;52.582;13.892;2022-08-05T05:24:11;9.48;;;6.80;;
15970;SDS011;59785;52.582;13.892;2022-08-05T05:26:42;11.80;;;6.88;;
15970;SDS011;59785;52.582;13.892;2022-08-05T05:29:12;11.32;;;7.43;;
15970;SDS011;59785;52.582;13.892;2022-08-05T05:31:39;15.30;;;6.85;;
15970;SDS011;59785;52.582;13.892;2022-08-05T05:34:04;12.32;;;7.03;;
15970;SDS011;59785;52.582;13.892;2022-08-05T05:36:31;9.23;;;6.38;;
15970;SDS011;59785;52.582;13.892;2022-08-05T05:39:02;6.68;;;6.05;;
15970;SDS011;59785;52.582;13.892;2022-08-05T05:41:29;10.20;;;7.20;;
15970;SDS011;59785;52.582;13.892;2022-08-05T05:44:06;8.70;;;7.15;;
15970;SDS011;59785;52.582;13.892;2022-08-05T05:46:52;9.52;;;6.88;;
15970;SDS011;59785;52.582;13.892;2022-08-05T05:49:20;10.38;;;6.60;;
15970;SDS011;59785;52.582;13.892;2022-08-05T05:51:48;9.35;;;6.68;;
15970;SDS011;59785;52.582;13.892;2022-08-05T05:54:18;9.88;;;7.00;;
15970;SDS011;59785;52.582;13.892;2022-08-05T05:56:44;8.27;;;6.20;;
15970;SDS011;59785;52.582;13.892;2022-08-05T05:59:12;10.65;;;7.18;;
15970;SDS011;59785;52.582;13.892;2022-08-05T06:01:38;10.02;;;7.15;;
15970;SDS011;59785;52.582;13.892;2022-08-05T06:04:22;10.07;;;6.87;;
15970;SDS011;59785;52.582;13.892;2022-08-05T06:06:48;8.38;;;6.30;;
15970;SDS011;59785;52.582;13.892;2022-08-05T06:09:15;16.60;;;6.75;;
15970;SDS011;59785;52.582;13.892;2022-08-05T06:11:51;8.10;;;6.25;;
15970;SDS011;59785;52.582;13.892;2022-08-05T06:14:26;8.57;;;6.03;;
15970;SDS011;59785;52.582;13.892;2022-08-05T06:16:53;10.32;;;5.68;;
15970;SDS011;59785;52.582;13.892;2022-08-05T06:19:21;7.63;;;6.22;;
15970;SDS011;59785;52.582;13.892;2022-08-05T06:22:00;7.38;;;6.18;;
15970;SDS011;59785;52.582;13.892;2022-08-05T06:24:26;6.82;;;6.13;;
15970;SDS011;59785;52.582;13.892;2022-08-05T06:26:53;6.47;;;5.63;;
15970;SDS011;59785;52.582;13.892;2022-08-05T06:29:20;6.70;;;6.07;;
15970;SDS011;59785;52.582;13.892;2022-08-05T06:31:51;9.07;;;6.18;;
15970;SDS011;59785;52.582;13.892;2022-08-05T06:34:18;8.27;;;5.93;;
15970;SDS011;59785;52.582;13.892;2022-08-05T06:36:44;6.97;;;6.00;;
15970;SDS011;59785;52.582;13.892;2022-08-05T06:39:22;7.07;;;5.13;;
15970;SDS011;59785;52.582;13.892;2022-08-05T06:41:52;8.52;;;5.18;;
15970;SDS011;59785;52.582;13.892;2022-08-05T06:44:18;6.15;;;4.97;;
15970;SDS011;59785;52.582;13.892;2022-08-05T06:46:46;6.90;;;5.32;;
15970;SDS011;59785;52.582;13.892;2022-08-05T06:49:15;10.20;;;5.63;;
15970;SDS011;59785;52.582;13.892;2022-08-05T06:51:43;9.02;;;5.35;;
15970;SDS011;59785;52.582;13.892;2022-08-05T06:54:09;7.93;;;5.70;;
15970;SDS011;59785;52.582;13.892;2022-08-05T06:56:43;6.10;;;5.50;;
15970;SDS011;59785;52.582;13.892;2022-08-05T06:59:29;6.00;;;5.40;;
15970;SDS011;59785;52.582;13.892;2022-08-05T07:02:03;8.02;;;5.22;;
15970;SDS011;59785;52.582;13.892;2022-08-05T07:04:29;7.15;;;4.88;;
15970;SDS011;59785;52.582;13.892;2022-08-05T07:06:58;10.27;;;6.13;;
15970;SDS011;59785;52.582;13.892;2022-08-05T07:09:24;6.65;;;5.05;;
15970;SDS011;59785;52.582;13.892;2022-08-05T07:11:57;10.48;;;5.35;;
15970;SDS011;59785;52.582;13.892;2022-08-05T07:14:25;6.35;;;4.63;;
15970;SDS011;59785;52.582;13.892;2022-08-05T07:17:09;7.50;;;4.97;;
15970;SDS011;59785;52.582;13.892;2022-08-05T07:19:56;7.57;;;4.78;;
15970;SDS011;59785;52.582;13.892;2022-08-05T07:22:42;6.10;;;4.05;;
15970;SDS011;59785;52.582;13.892;2022-08-05T07:25:10;11.43;;;4.25;;
15970;SDS011;59785;52.582;13.892;2022-08-05T07:27:56;4.47;;;4.07;;
15970;SDS011;59785;52.582;13.892;2022-08-05T07:30:31;5.13;;;4.35;;
15970;SDS011;59785;52.582;13.892;2022-08-05T07:32:59;8.55;;;4.43;;
15970;SDS011;59785;52.582;13.892;2022-08-05T07:35:30;4.82;;;4.10;;
15970;SDS011;59785;52.582;13.892;2022-08-05T07:38:16;5.18;;;3.92;;
15970;SDS011;59785;52.582;13.892;2022-08-05T07:40:59;4.43;;;3.78;;
15970;SDS011;59785;52.582;13.892;2022-08-05T07:43:45;5.55;;;3.60;;
15970;SDS011;59785;52.582;13.892;2022-08-05T07:46:12;8.02;;;3.60;;
15970;SDS011;59785;52.582;13.892;2022-08-05T07:48:50;4.95;;;3.20;;
15970;SDS011;59785;52.582;13.892;2022-08-05T07:51:30;4.10;;;3.33;;
15970;SDS011;59785;52.582;13.892;2022-08-05T07:54:02;5.85;;;3.40;;
15970;SDS011;59785;52.582;13.892;2022-08-05T07:56:29;4.72;;;3.08;;
15970;SDS011;59785;52.582;13.892;2022-08-05T07:59:15;3.58;;;3.22;;
15970;SDS011;59785;52.582;13.892;2022-08-05T08:01:47;5.47;;;3.45;;
15970;SDS011;59785;52.582;13.892;2022-08-05T08:04:22;5.90;;;3.20;;
15970;SDS011;59785;52.582;13.892;2022-08-05T08:07:02;3.28;;;2.97;;
15970;SDS011;59785;52.582;13.892;2022-08-05T08:09:32;4.10;;;3.10;;
15970;SDS011;59785;52.582;13.892;2022-08-05T08:11:58;5.10;;;3.13;;
15970;SDS011;59785;52.582;13.892;2022-08-05T08:14:36;5.10;;;2.97;;
15970;SDS011;59785;52.582;13.892;2022-08-05T08:17:05;8.38;;;2.58;;
15970;SDS011;59785;52.582;13.892;2022-08-05T08:19:41;6.32;;;2.92;;
15970;SDS011;59785;52.582;13.892;2022-08-05T08:22:28;3.80;;;2.53;;
15970;SDS011;59785;52.582;13.892;2022-08-05T08:24:54;2.90;;;2.70;;
15970;SDS011;59785;52.582;13.892;2022-08-05T08:27:27;4.47;;;2.50;;
15970;SDS011;59785;52.582;13.892;2022-08-05T08:30:10;3.00;;;2.80;;
15970;SDS011;59785;52.582;13.892;2022-08-05T08:32:56;5.97;;;2.80;;
15970;SDS011;59785;52.582;13.892;2022-08-05T08:35:27;3.20;;;2.90;;
15970;SDS011;59785;52.582;13.892;2022-08-05T08:37:59;5.15;;;2.83;;
15970;SDS011;59785;52.582;13.892;2022-08-05T08:40:26;3.30;;;3.00;;
15970;SDS011;59785;52.582;13.892;2022-08-05T08:42:52;5.82;;;2.83;;
15970;SDS011;59785;52.582;13.892;2022-08-05T08:45:21;5.68;;;3.53;;
15970;SDS011;59785;52.582;13.892;2022-08-05T08:47:54;2.80;;;2.60;;
15970;SDS011;59785;52.582;13.892;2022-08-05T08:50:42;3.17;;;2.88;;
15970;SDS011;59785;52.582;13.892;2022-08-05T08:53:32;2.95;;;2.63;;
15970;SDS011;59785;52.582;13.892;2022-08-05T08:56:02;3.55;;;3.20;;
15970;SDS011;59785;52.582;13.892;2022-08-05T08:58:31;2.92;;;2.38;;
15970;SDS011;59785;52.582;13.892;2022-08-05T09:01:12;3.47;;;2.78;;
15970;SDS011;59785;52.582;13.892;2022-08-05T09:03:42;3.60;;;2.10;;
15970;SDS011;59785;52.582;13.892;2022-08-05T09:06:10;5.55;;;2.67;;
15970;SDS011;59785;52.582;13.892;2022-08-05T09:08:43;2.95;;;2.20;;
15970;SDS011;59785;52.582;13.892;2022-08-05T09:11:09;4.78;;;2.25;;
15970;SDS011;59785;52.582;13.892;2022-08-05T09:13:38;3.03;;;2.53;;
15970;SDS011;59785;52.582;13.892;2022-08-05T09:16:26;5.80;;;2.00;;
15970;SDS011;59785;52.582;13.892;2022-08-05T09:18:52;2.30;;;1.98;;
15970;SDS011;59785;52.582;13.892;2022-08-05T09:21:20;3.22;;;2.15;;
15970;SDS011;59785;52.582;13.892;2022-08-05T09:24:09;3.47;;;2.17;;
15970;SDS011;59785;52.582;13.892;2022-08-05T09:26:40;4.88;;;1.90;;
15970;SDS011;59785;52.582;13.892;2022-08-05T09:29:08;2.83;;;2.00;;
15970;SDS011;59785;52.582;13.892;2022-08-05T09:31:35;5.32;;;2.42;;
15970;SDS011;59785;52.582;13.892;2022-08-05T09:34:21;3.13;;;2.28;;
15970;SDS011;59785;52.582;13.892;2022-08-05T09:36:50;2.60;;;1.83;;
15970;SDS011;59785;52.582;13.892;2022-08-05T09:39:24;1.80;;;1.63;;
15970;SDS011;59785;52.582;13.892;2022-08-05T09:42:11;2.35;;;1.65;;
15970;SDS011;59785;52.582;13.892;2022-08-05T09:44:49;2.97;;;1.70;;
15970;SDS011;59785;52.582;13.892;2022-08-05T09:47:22;1.88;;;1.73;;
15970;SDS011;59785;52.582;13.892;2022-08-05T09:49:51;3.65;;;2.05;;
15970;SDS011;59785;52.582;13.892;2022-08-05T09:55:09;3.28;;;2.22;;
15970;SDS011;59785;52.582;13.892;2022-08-05T09:57:57;2.80;;;1.85;;
15970;SDS011;59785;52.582;13.892;2022-08-05T10:00:24;4.43;;;2.20;;
15970;SDS011;59785;52.582;13.892;2022-08-05T10:02:52;2.88;;;1.90;;
15970;SDS011;59785;52.582;13.892;2022-08-05T10:05:24;4.03;;;2.40;;
15970;SDS011;59785;52.582;13.892;2022-08-05T10:07:56;4.85;;;2.45;;
15970;SDS011;59785;52.582;13.892;2022-08-05T10:13:24;4.55;;;2.00;;
15970;SDS011;59785;52.582;13.892;2022-08-05T10:16:29;2.45;;;2.25;;
15970;SDS011;59785;52.582;13.892;2022-08-05T10:19:17;4.10;;;2.45;;
15970;SDS011;59785;52.582;13.892;2022-08-05T10:22:04;2.60;;;2.40;;
15970;SDS011;59785;52.582;13.892;2022-08-05T10:24:35;3.42;;;2.70;;
15970;SDS011;59785;52.582;13.892;2022-08-05T10:27:04;3.20;;;2.20;;
15970;SDS011;59785;52.582;13.892;2022-08-05T10:29:32;2.60;;;2.40;;
15970;SDS011;59785;52.582;13.892;2022-08-05T10:32:22;3.08;;;2.05;;
15970;SDS011;59785;52.582;13.892;2022-08-05T10:35:08;8.35;;;2.50;;
15970;SDS011;59785;52.582;13.892;2022-08-05T10:37:35;4.40;;;2.10;;
15970;SDS011;59785;52.582;13.892;2022-08-05T10:40:14;5.07;;;2.17;;
15970;SDS011;59785;52.582;13.892;2022-08-05T10:42:53;6.68;;;3.00;;
15970;SDS011;59785;52.582;13.892;2022-08-05T10:45:26;5.15;;;2.58;;
15970;SDS011;59785;52.582;13.892;2022-08-05T10:56:20;7.82;;;3.30;;
15970;SDS011;59785;52.582;13.892;2022-08-05T11:01:37;7.68;;;3.20;;
15970;SDS011;59785;52.582;13.892;2022-08-05T11:04:26;5.15;;;3.10;;
15970;SDS011;59785;52.582;13.892;2022-08-05T11:09:27;7.43;;;3.53;;
15970;SDS011;59785;52.582;13.892;2022-08-05T11:15:25;7.97;;;3.78;;
15970;SDS011;59785;52.582;13.892;2022-08-05T11:18:27;5.43;;;3.25;;
15970;SDS011;59785;52.582;13.892;2022-08-05T11:20:58;4.90;;;3.10;;
15970;SDS011;59785;52.582;13.892;2022-08-05T11:23:40;6.30;;;3.65;;
15970;SDS011;59785;52.582;13.892;2022-08-05T11:26:28;4.10;;;3.70;;
15970;SDS011;59785;52.582;13.892;2022-08-05T11:28:58;8.93;;;4.10;;
15970;SDS011;59785;52.582;13.892;2022-08-05T11:31:38;9.45;;;4.20;;
15970;SDS011;59785;52.582;13.892;2022-08-05T11:34:38;3.75;;;3.22;;
15970;SDS011;59785;52.582;13.892;2022-08-05T11:43:56;5.78;;;3.67;;
15970;SDS011;59785;52.582;13.892;2022-08-05T11:47:00;6.97;;;3.42;;
15970;SDS011;59785;52.582;13.892;2022-08-05T11:49:42;6.13;;;3.17;;
15970;SDS011;59785;52.582;13.892;2022-08-05T11:52:25;7.15;;;3.42;;
15970;SDS011;59785;52.582;13.892;2022-08-05T11:54:56;4.88;;;3.17;;
15970;SDS011;59785;52.582;13.892;2022-08-05T21:14:06;4.03;;;2.28;;
15970;SDS011;59785;52.582;13.892;2022-08-05T21:16:32;1.80;;;1.70;;
15970;SDS011;59785;52.582;13.892;2022-08-05T21:18:59;2.58;;;1.77;;
15970;SDS011;59785;52.582;13.892;2022-08-05T21:21:28;3.60;;;1.65;;
15970;SDS011;59785;52.582;13.892;2022-08-05T21:24:09;2.38;;;1.95;;
15970;SDS011;59785;52.582;13.892;2022-08-05T21:26:38;2.20;;;1.70;;
15970;SDS011;59785;52.582;13.892;2022-08-05T21:29:06;2.05;;;1.85;;
15970;SDS011;59785;52.582;13.892;2022-08-05T21:31:37;4.22;;;1.70;;
15970;SDS011;59785;52.582;13.892;2022-08-05T21:34:06;2.40;;;1.40;;
15970;SDS011;59785;52.582;13.892;2022-08-05T21:36:35;2.17;;;1.88;;
15970;SDS011;59785;52.582;13.892;2022-08-05T21:39:01;2.50;;;1.50;;
15970;SDS011;59785;52.582;13.892;2022-08-05T21:41:27;1.80;;;1.70;;
15970;SDS011;59785;52.582;13.892;2022-08-05T21:43:59;1.75;;;1.65;;
15970;SDS011;59785;52.582;13.892;2022-08-05T21:46:29;2.95;;;1.58;;
15970;SDS011;59785;52.582;13.892;2022-08-05T21:48:59;1.75;;;1.63;;
15970;SDS011;59785;52.582;13.892;2022-08-05T21:51:25;3.10;;;2.17;;
15970;SDS011;59785;52.582;13.892;2022-08-05T21:54:11;3.10;;;1.85;;
